sensor_id;sensor_type;location;lat;lon;timestamp;temperature;humidity
6556;DHT22;3311;48.32423000;14.29074500;2023-02-22T00:00:15;11.90;64.10
6556;DHT22;3311;48.32423000;14.29074500;2023-02-22T00:02:52;11.90;64.20
6556;DHT22;3311;48.32423000;14.29074500;2023-02-22T00:05:25;11.80;63.90
6556;DHT22;3311;48.32423000;14.29074500;2023-02-22T00:07:53;11.80;64.00
6556;DHT22;3311;48.32423000;14.29074500;2023-02-22T00:10:23;11.90;63.60
6556;DHT22;3311;48.32423000;14.29074500;2023-02-22T00:12:52;11.90;63.40
6556;DHT22;3311;48.32423000;14.29074500;2023-02-22T00:15:21;11.80;63.50
6556;DHT22;3311;48.32423000;14.29074500;2023-02-22T00:17:54;11.80;63.60
6556;DHT22;3311;48.32423000;14.29074500;2023-02-22T00:20:22;11.80;63.40
6556;DHT22;3311;48.32423000;14.29074500;2023-02-22T00:22:50;11.70;63.70
6556;DHT22;3311;48.32423000;14.29074500;2023-02-22T00:25:20;11.80;63.60
6556;DHT22;3311;48.32423000;14.29074500;2023-02-22T00:27:48;11.80;63.30
6556;DHT22;3311;48.32423000;14.29074500;2023-02-22T00:30:20;11.80;63.10
6556;DHT22;3311;48.32423000;14.29074500;2023-02-22T00:32:48;11.80;63.50
6556;DHT22;3311;48.32423000;14.29074500;2023-02-22T00:35:20;11.80;63.40
6556;DHT22;3311;48.32423000;14.29074500;2023-02-22T00:37:49;11.80;63.00
6556;DHT22;3311;48.32423000;14.29074500;2023-02-22T00:40:19;11.70;63.30
6556;DHT22;3311;48.32423000;14.29074500;2023-02-22T00:42:47;11.60;63.80
6556;DHT22;3311;48.32423000;14.29074500;2023-02-22T00:45:16;11.70;63.50
6556;DHT22;3311;48.32423000;14.29074500;2023-02-22T00:47:44;11.80;63.20
6556;DHT22;3311;48.32423000;14.29074500;2023-02-22T00:50:11;11.80;63.40
6556;DHT22;3311;48.32423000;14.29074500;2023-02-22T00:52:41;11.70;63.20
6556;DHT22;3311;48.32423000;14.29074500;2023-02-22T00:55:15;11.70;63.30
6556;DHT22;3311;48.32423000;14.29074500;2023-02-22T00:57:42;11.60;63.50
6556;DHT22;3311;48.32423000;14.29074500;2023-02-22T01:00:15;11.60;63.50
6556;DHT22;3311;48.32423000;14.29074500;2023-02-22T01:02:43;11.60;63.70
6556;DHT22;3311;48.32423000;14.29074500;2023-02-22T01:05:13;11.60;63.60
6556;DHT22;3311;48.32423000;14.29074500;2023-02-22T01:07:43;11.40;63.50
6556;DHT22;3311;48.32423000;14.29074500;2023-02-22T01:10:11;11.50;63.60
6556;DHT22;3311;48.32423000;14.29074500;2023-02-22T01:12:39;11.50;63.90
6556;DHT22;3311;48.32423000;14.29074500;2023-02-22T01:15:08;11.40;63.90
6556;DHT22;3311;48.32423000;14.29074500;2023-02-22T01:17:58;11.50;64.00
6556;DHT22;3311;48.32423000;14.29074500;2023-02-22T01:20:27;11.50;63.60
6556;DHT22;3311;48.32423000;14.29074500;2023-02-22T01:22:59;11.50;63.10
6556;DHT22;3311;48.32423000;14.29074500;2023-02-22T01:25:29;11.50;62.80
6556;DHT22;3311;48.32423000;14.29074500;2023-02-22T01:27:59;11.50;63.00
6556;DHT22;3311;48.32423000;14.29074500;2023-02-22T01:30:29;11.60;62.80
6556;DHT22;3311;48.32423000;14.29074500;2023-02-22T01:32:57;11.60;63.00
6556;DHT22;3311;48.32423000;14.29074500;2023-02-22T01:35:28;11.50;63.20
6556;DHT22;3311;48.32423000;14.29074500;2023-02-22T01:37:57;11.40;63.70
6556;DHT22;3311;48.32423000;14.29074500;2023-02-22T01:40:28;11.40;64.50
6556;DHT22;3311;48.32423000;14.29074500;2023-02-22T01:42:58;11.40;63.60
6556;DHT22;3311;48.32423000;14.29074500;2023-02-22T01:45:44;11.40;63.90
6556;DHT22;3311;48.32423000;14.29074500;2023-02-22T01:48:17;11.30;63.80
6556;DHT22;3311;48.32423000;14.29074500;2023-02-22T01:50:49;11.30;63.80
6556;DHT22;3311;48.32423000;14.29074500;2023-02-22T01:53:22;11.30;63.50
6556;DHT22;3311;48.32423000;14.29074500;2023-02-22T01:55:50;11.40;63.50
6556;DHT22;3311;48.32423000;14.29074500;2023-02-22T01:58:20;11.30;63.00
6556;DHT22;3311;48.32423000;14.29074500;2023-02-22T02:00:48;11.30;63.20
6556;DHT22;3311;48.32423000;14.29074500;2023-02-22T02:03:20;11.30;63.20
6556;DHT22;3311;48.32423000;14.29074500;2023-02-22T02:05:51;11.30;62.80
6556;DHT22;3311;48.32423000;14.29074500;2023-02-22T02:08:29;11.30;63.30
6556;DHT22;3311;48.32423000;14.29074500;2023-02-22T02:11:02;11.30;63.10
6556;DHT22;3311;48.32423000;14.29074500;2023-02-22T02:13:30;11.30;62.80
6556;DHT22;3311;48.32423000;14.29074500;2023-02-22T02:15:57;11.30;63.00
6556;DHT22;3311;48.32423000;14.29074500;2023-02-22T02:18:26;11.30;63.10
6556;DHT22;3311;48.32423000;14.29074500;2023-02-22T02:21:14;11.30;63.10
6556;DHT22;3311;48.32423000;14.29074500;2023-02-22T02:27:07;11.20;63.20
6556;DHT22;3311;48.32423000;14.29074500;2023-02-22T02:30:21;11.10;63.10
6556;DHT22;3311;48.32423000;14.29074500;2023-02-22T02:32:58;11.10;63.10
6556;DHT22;3311;48.32423000;14.29074500;2023-02-22T02:35:43;11.10;63.30
6556;DHT22;3311;48.32423000;14.29074500;2023-02-22T02:38:22;11.10;63.30
6556;DHT22;3311;48.32423000;14.29074500;2023-02-22T02:41:02;11.20;63.10
6556;DHT22;3311;48.32423000;14.29074500;2023-02-22T02:43:33;11.10;63.00
6556;DHT22;3311;48.32423000;14.29074500;2023-02-22T02:46:05;11.00;63.20
6556;DHT22;3311;48.32423000;14.29074500;2023-02-22T02:48:39;11.00;63.30
6556;DHT22;3311;48.32423000;14.29074500;2023-02-22T02:51:09;11.00;63.40
6556;DHT22;3311;48.32423000;14.29074500;2023-02-22T02:53:43;11.10;63.10
6556;DHT22;3311;48.32423000;14.29074500;2023-02-22T02:56:11;11.10;63.00
6556;DHT22;3311;48.32423000;14.29074500;2023-02-22T02:58:45;11.00;62.60
6556;DHT22;3311;48.32423000;14.29074500;2023-02-22T03:01:19;11.00;62.70
6556;DHT22;3311;48.32423000;14.29074500;2023-02-22T03:07:02;11.00;63.30
6556;DHT22;3311;48.32423000;14.29074500;2023-02-22T03:09:39;11.00;62.90
6556;DHT22;3311;48.32423000;14.29074500;2023-02-22T03:12:18;10.90;62.40
6556;DHT22;3311;48.32423000;14.29074500;2023-02-22T03:14:56;10.90;62.70
6556;DHT22;3311;48.32423000;14.29074500;2023-02-22T03:17:34;11.00;63.00
6556;DHT22;3311;48.32423000;14.29074500;2023-02-22T03:20:10;11.00;62.40
6556;DHT22;3311;48.32423000;14.29074500;2023-02-22T03:22:43;11.00;62.00
6556;DHT22;3311;48.32423000;14.29074500;2023-02-22T03:25:16;11.00;61.90
6556;DHT22;3311;48.32423000;14.29074500;2023-02-22T03:27:48;11.00;62.20
6556;DHT22;3311;48.32423000;14.29074500;2023-02-22T03:30:21;11.10;62.10
6556;DHT22;3311;48.32423000;14.29074500;2023-02-22T03:32:55;11.00;61.90
6556;DHT22;3311;48.32423000;14.29074500;2023-02-22T03:35:28;11.00;62.40
6556;DHT22;3311;48.32423000;14.29074500;2023-02-22T03:37:57;11.00;62.20
6556;DHT22;3311;48.32423000;14.29074500;2023-02-22T03:40:30;10.90;61.70
6556;DHT22;3311;48.32423000;14.29074500;2023-02-22T03:43:02;10.90;61.80
6556;DHT22;3311;48.32423000;14.29074500;2023-02-22T03:45:31;10.90;62.00
6556;DHT22;3311;48.32423000;14.29074500;2023-02-22T03:48:03;11.00;62.10
6556;DHT22;3311;48.32423000;14.29074500;2023-02-22T03:50:35;11.00;62.10
6556;DHT22;3311;48.32423000;14.29074500;2023-02-22T03:53:03;10.90;62.00
6556;DHT22;3311;48.32423000;14.29074500;2023-02-22T03:55:32;10.80;62.20
6556;DHT22;3311;48.32423000;14.29074500;2023-02-22T03:58:02;10.80;62.20
6556;DHT22;3311;48.32423000;14.29074500;2023-02-22T04:00:32;10.80;61.70
6556;DHT22;3311;48.32423000;14.29074500;2023-02-22T04:03:01;10.80;61.70
6556;DHT22;3311;48.32423000;14.29074500;2023-02-22T04:05:28;10.90;61.40
6556;DHT22;3311;48.32423000;14.29074500;2023-02-22T04:07:57;10.90;61.60
6556;DHT22;3311;48.32423000;14.29074500;2023-02-22T04:10:26;10.80;62.50
6556;DHT22;3311;48.32423000;14.29074500;2023-02-22T04:12:54;10.80;61.80
6556;DHT22;3311;48.32423000;14.29074500;2023-02-22T04:15:22;10.80;61.80
6556;DHT22;3311;48.32423000;14.29074500;2023-02-22T04:17:50;10.70;61.60
6556;DHT22;3311;48.32423000;14.29074500;2023-02-22T04:20:19;10.80;61.80
6556;DHT22;3311;48.32423000;14.29074500;2023-02-22T04:22:51;10.80;62.00
6556;DHT22;3311;48.32423000;14.29074500;2023-02-22T04:25:20;10.80;62.20
6556;DHT22;3311;48.32423000;14.29074500;2023-02-22T04:27:48;10.70;61.70
6556;DHT22;3311;48.32423000;14.29074500;2023-02-22T04:30:17;10.70;61.60
6556;DHT22;3311;48.32423000;14.29074500;2023-02-22T04:32:46;10.70;61.70
6556;DHT22;3311;48.32423000;14.29074500;2023-02-22T04:35:13;10.70;61.50
6556;DHT22;3311;48.32423000;14.29074500;2023-02-22T04:37:40;10.60;61.80
6556;DHT22;3311;48.32423000;14.29074500;2023-02-22T04:40:09;10.60;61.90
6556;DHT22;3311;48.32423000;14.29074500;2023-02-22T04:42:38;10.70;61.90
6556;DHT22;3311;48.32423000;14.29074500;2023-02-22T04:45:08;10.70;61.80
6556;DHT22;3311;48.32423000;14.29074500;2023-02-22T04:47:36;10.70;61.70
6556;DHT22;3311;48.32423000;14.29074500;2023-02-22T04:50:05;10.60;61.80
6556;DHT22;3311;48.32423000;14.29074500;2023-02-22T04:52:32;10.60;62.00
6556;DHT22;3311;48.32423000;14.29074500;2023-02-22T04:55:00;10.50;62.00
6556;DHT22;3311;48.32423000;14.29074500;2023-02-22T04:57:27;10.60;61.90
6556;DHT22;3311;48.32423000;14.29074500;2023-02-22T04:59:56;10.50;61.70
6556;DHT22;3311;48.32423000;14.29074500;2023-02-22T05:02:24;10.50;62.50
6556;DHT22;3311;48.32423000;14.29074500;2023-02-22T05:04:51;10.50;62.00
6556;DHT22;3311;48.32423000;14.29074500;2023-02-22T05:07:18;10.50;61.70
6556;DHT22;3311;48.32423000;14.29074500;2023-02-22T05:09:46;10.60;61.70
6556;DHT22;3311;48.32423000;14.29074500;2023-02-22T05:12:13;10.60;62.00
6556;DHT22;3311;48.32423000;14.29074500;2023-02-22T05:14:41;10.50;62.10
6556;DHT22;3311;48.32423000;14.29074500;2023-02-22T05:17:10;10.60;62.00
6556;DHT22;3311;48.32423000;14.29074500;2023-02-22T05:19:38;10.50;62.00
6556;DHT22;3311;48.32423000;14.29074500;2023-02-22T05:22:06;10.50;62.10
6556;DHT22;3311;48.32423000;14.29074500;2023-02-22T05:24:33;10.50;62.20
6556;DHT22;3311;48.32423000;14.29074500;2023-02-22T05:27:00;10.40;62.00
6556;DHT22;3311;48.32423000;14.29074500;2023-02-22T05:29:28;10.50;62.00
6556;DHT22;3311;48.32423000;14.29074500;2023-02-22T05:31:55;10.40;62.10
6556;DHT22;3311;48.32423000;14.29074500;2023-02-22T05:34:24;10.50;62.00
6556;DHT22;3311;48.32423000;14.29074500;2023-02-22T05:36:51;10.50;61.70
6556;DHT22;3311;48.32423000;14.29074500;2023-02-22T05:39:19;10.50;61.40
6556;DHT22;3311;48.32423000;14.29074500;2023-02-22T05:41:46;10.40;61.50
6556;DHT22;3311;48.32423000;14.29074500;2023-02-22T05:44:13;10.40;61.90
6556;DHT22;3311;48.32423000;14.29074500;2023-02-22T05:46:41;10.40;61.90
6556;DHT22;3311;48.32423000;14.29074500;2023-02-22T05:49:08;10.40;61.80
6556;DHT22;3311;48.32423000;14.29074500;2023-02-22T05:51:37;10.40;61.70
6556;DHT22;3311;48.32423000;14.29074500;2023-02-22T05:54:04;10.30;61.90
6556;DHT22;3311;48.32423000;14.29074500;2023-02-22T05:56:31;10.30;61.70
6556;DHT22;3311;48.32423000;14.29074500;2023-02-22T05:58:59;10.30;61.50
6556;DHT22;3311;48.32423000;14.29074500;2023-02-22T06:01:26;10.30;61.90
6556;DHT22;3311;48.32423000;14.29074500;2023-02-22T06:03:53;10.30;62.00
6556;DHT22;3311;48.32423000;14.29074500;2023-02-22T06:06:21;10.30;61.90
6556;DHT22;3311;48.32423000;14.29074500;2023-02-22T06:08:50;10.40;61.80
6556;DHT22;3311;48.32423000;14.29074500;2023-02-22T06:11:17;10.40;61.70
6556;DHT22;3311;48.32423000;14.29074500;2023-02-22T06:13:49;10.40;61.80
6556;DHT22;3311;48.32423000;14.29074500;2023-02-22T06:16:18;10.30;61.90
6556;DHT22;3311;48.32423000;14.29074500;2023-02-22T06:18:46;10.30;61.90
6556;DHT22;3311;48.32423000;14.29074500;2023-02-22T06:21:14;10.20;62.30
6556;DHT22;3311;48.32423000;14.29074500;2023-02-22T06:23:42;10.20;62.50
6556;DHT22;3311;48.32423000;14.29074500;2023-02-22T06:26:10;10.20;61.80
6556;DHT22;3311;48.32423000;14.29074500;2023-02-22T06:28:37;10.30;61.70
6556;DHT22;3311;48.32423000;14.29074500;2023-02-22T06:31:05;10.30;62.70
6556;DHT22;3311;48.32423000;14.29074500;2023-02-22T06:33:32;10.40;63.40
6556;DHT22;3311;48.32423000;14.29074500;2023-02-22T06:35:59;10.40;63.90
6556;DHT22;3311;48.32423000;14.29074500;2023-02-22T06:38:26;10.40;65.00
6556;DHT22;3311;48.32423000;14.29074500;2023-02-22T06:40:54;10.40;65.50
6556;DHT22;3311;48.32423000;14.29074500;2023-02-22T06:43:23;10.60;65.80
6556;DHT22;3311;48.32423000;14.29074500;2023-02-22T06:45:51;10.70;65.50
6556;DHT22;3311;48.32423000;14.29074500;2023-02-22T06:48:18;11.00;65.30
6556;DHT22;3311;48.32423000;14.29074500;2023-02-22T06:50:45;11.20;64.70
6556;DHT22;3311;48.32423000;14.29074500;2023-02-22T06:53:13;11.40;64.50
6556;DHT22;3311;48.32423000;14.29074500;2023-02-22T06:55:40;11.50;64.40
6556;DHT22;3311;48.32423000;14.29074500;2023-02-22T06:58:07;11.80;63.70
6556;DHT22;3311;48.32423000;14.29074500;2023-02-22T07:00:36;12.00;63.10
6556;DHT22;3311;48.32423000;14.29074500;2023-02-22T07:03:03;12.20;62.60
6556;DHT22;3311;48.32423000;14.29074500;2023-02-22T07:05:30;12.20;62.30
6556;DHT22;3311;48.32423000;14.29074500;2023-02-22T07:08:03;12.30;61.60
6556;DHT22;3311;48.32423000;14.29074500;2023-02-22T07:10:32;12.40;61.60
6556;DHT22;3311;48.32423000;14.29074500;2023-02-22T07:13:00;12.50;61.40
6556;DHT22;3311;48.32423000;14.29074500;2023-02-22T07:15:29;12.50;61.40
6556;DHT22;3311;48.32423000;14.29074500;2023-02-22T07:17:59;12.70;61.10
6556;DHT22;3311;48.32423000;14.29074500;2023-02-22T07:20:28;12.80;60.80
6556;DHT22;3311;48.32423000;14.29074500;2023-02-22T07:22:55;12.80;60.70
6556;DHT22;3311;48.32423000;14.29074500;2023-02-22T07:25:24;12.80;60.50
6556;DHT22;3311;48.32423000;14.29074500;2023-02-22T07:27:51;12.80;60.50
6556;DHT22;3311;48.32423000;14.29074500;2023-02-22T07:30:20;12.80;60.70
6556;DHT22;3311;48.32423000;14.29074500;2023-02-22T07:32:50;12.80;60.70
6556;DHT22;3311;48.32423000;14.29074500;2023-02-22T07:35:21;12.90;60.60
6556;DHT22;3311;48.32423000;14.29074500;2023-02-22T07:37:49;13.00;60.30
6556;DHT22;3311;48.32423000;14.29074500;2023-02-22T07:40:20;13.10;60.10
6556;DHT22;3311;48.32423000;14.29074500;2023-02-22T07:42:52;13.10;59.70
6556;DHT22;3311;48.32423000;14.29074500;2023-02-22T07:45:20;13.20;59.70
6556;DHT22;3311;48.32423000;14.29074500;2023-02-22T07:47:48;13.10;59.70
6556;DHT22;3311;48.32423000;14.29074500;2023-02-22T07:50:16;13.10;59.80
6556;DHT22;3311;48.32423000;14.29074500;2023-02-22T07:52:47;13.10;60.00
6556;DHT22;3311;48.32423000;14.29074500;2023-02-22T07:55:15;13.10;60.20
6556;DHT22;3311;48.32423000;14.29074500;2023-02-22T07:57:45;13.10;60.10
6556;DHT22;3311;48.32423000;14.29074500;2023-02-22T08:00:14;13.10;60.20
6556;DHT22;3311;48.32423000;14.29074500;2023-02-22T08:02:42;13.10;59.90
6556;DHT22;3311;48.32423000;14.29074500;2023-02-22T08:05:10;13.20;59.90
6556;DHT22;3311;48.32423000;14.29074500;2023-02-22T08:07:37;13.30;59.70
6556;DHT22;3311;48.32423000;14.29074500;2023-02-22T08:10:08;13.30;59.70
6556;DHT22;3311;48.32423000;14.29074500;2023-02-22T08:12:36;13.30;59.80
6556;DHT22;3311;48.32423000;14.29074500;2023-02-22T08:15:06;13.40;59.60
6556;DHT22;3311;48.32423000;14.29074500;2023-02-22T08:17:33;13.60;59.50
6556;DHT22;3311;48.32423000;14.29074500;2023-02-22T08:20:01;13.80;59.10
6556;DHT22;3311;48.32423000;14.29074500;2023-02-22T08:22:28;14.00;58.50
6556;DHT22;3311;48.32423000;14.29074500;2023-02-22T08:24:55;14.20;58.50
6556;DHT22;3311;48.32423000;14.29074500;2023-02-22T08:27:26;14.30;58.10
6556;DHT22;3311;48.32423000;14.29074500;2023-02-22T08:29:55;14.40;57.90
6556;DHT22;3311;48.32423000;14.29074500;2023-02-22T08:32:22;14.50;57.80
6556;DHT22;3311;48.32423000;14.29074500;2023-02-22T08:34:51;14.60;57.70
6556;DHT22;3311;48.32423000;14.29074500;2023-02-22T08:37:18;14.60;57.70
6556;DHT22;3311;48.32423000;14.29074500;2023-02-22T08:39:45;14.70;57.60
6556;DHT22;3311;48.32423000;14.29074500;2023-02-22T08:42:12;14.80;57.50
6556;DHT22;3311;48.32423000;14.29074500;2023-02-22T08:44:41;14.80;57.40
6556;DHT22;3311;48.32423000;14.29074500;2023-02-22T08:47:09;14.80;57.10
6556;DHT22;3311;48.32423000;14.29074500;2023-02-22T08:49:36;14.90;57.10
6556;DHT22;3311;48.32423000;14.29074500;2023-02-22T08:52:03;15.00;57.00
6556;DHT22;3311;48.32423000;14.29074500;2023-02-22T08:54:31;14.90;57.60
6556;DHT22;3311;48.32423000;14.29074500;2023-02-22T08:56:58;15.00;57.30
6556;DHT22;3311;48.32423000;14.29074500;2023-02-22T08:59:25;15.00;57.10
6556;DHT22;3311;48.32423000;14.29074500;2023-02-22T09:01:53;15.00;57.20
6556;DHT22;3311;48.32423000;14.29074500;2023-02-22T09:04:20;15.00;57.40
6556;DHT22;3311;48.32423000;14.29074500;2023-02-22T09:06:48;15.00;57.50
6556;DHT22;3311;48.32423000;14.29074500;2023-02-22T09:09:17;14.90;57.50
6556;DHT22;3311;48.32423000;14.29074500;2023-02-22T09:11:46;14.90;57.60
6556;DHT22;3311;48.32423000;14.29074500;2023-02-22T09:14:14;14.90;57.70
6556;DHT22;3311;48.32423000;14.29074500;2023-02-22T09:16:43;14.90;57.80
6556;DHT22;3311;48.32423000;14.29074500;2023-02-22T09:19:12;14.90;57.80
6556;DHT22;3311;48.32423000;14.29074500;2023-02-22T09:21:39;14.90;57.90
6556;DHT22;3311;48.32423000;14.29074500;2023-02-22T09:24:07;14.90;57.80
6556;DHT22;3311;48.32423000;14.29074500;2023-02-22T09:26:35;15.00;57.70
6556;DHT22;3311;48.32423000;14.29074500;2023-02-22T09:29:05;15.00;57.70
6556;DHT22;3311;48.32423000;14.29074500;2023-02-22T09:31:35;15.00;57.70
6556;DHT22;3311;48.32423000;14.29074500;2023-02-22T09:34:03;15.00;58.00
6556;DHT22;3311;48.32423000;14.29074500;2023-02-22T09:36:39;15.00;57.60
6556;DHT22;3311;48.32423000;14.29074500;2023-02-22T09:39:07;15.00;57.60
6556;DHT22;3311;48.32423000;14.29074500;2023-02-22T09:41:39;15.10;57.60
6556;DHT22;3311;48.32423000;14.29074500;2023-02-22T09:44:17;15.10;57.70
6556;DHT22;3311;48.32423000;14.29074500;2023-02-22T09:46:46;15.20;57.60
6556;DHT22;3311;48.32423000;14.29074500;2023-02-22T09:49:20;15.20;57.60
6556;DHT22;3311;48.32423000;14.29074500;2023-02-22T09:51:57;15.20;57.50
6556;DHT22;3311;48.32423000;14.29074500;2023-02-22T09:54:30;15.20;57.40
6556;DHT22;3311;48.32423000;14.29074500;2023-02-22T09:57:02;15.20;57.40
6556;DHT22;3311;48.32423000;14.29074500;2023-02-22T09:59:34;15.30;57.30
6556;DHT22;3311;48.32423000;14.29074500;2023-02-22T10:02:20;15.30;57.40
6556;DHT22;3311;48.32423000;14.29074500;2023-02-22T10:04:55;15.30;57.50
6556;DHT22;3311;48.32423000;14.29074500;2023-02-22T10:07:32;15.30;57.50
6556;DHT22;3311;48.32423000;14.29074500;2023-02-22T10:10:02;15.30;57.60
6556;DHT22;3311;48.32423000;14.29074500;2023-02-22T10:12:38;15.30;57.80
6556;DHT22;3311;48.32423000;14.29074500;2023-02-22T10:15:30;15.30;57.80
6556;DHT22;3311;48.32423000;14.29074500;2023-02-22T10:18:18;15.30;57.80
6556;DHT22;3311;48.32423000;14.29074500;2023-02-22T10:20:52;15.30;57.90
6556;DHT22;3311;48.32423000;14.29074500;2023-02-22T10:23:28;15.30;57.90
6556;DHT22;3311;48.32423000;14.29074500;2023-02-22T10:26:07;15.30;57.90
6556;DHT22;3311;48.32423000;14.29074500;2023-02-22T10:28:46;15.30;58.10
6556;DHT22;3311;48.32423000;14.29074500;2023-02-22T10:31:20;15.30;58.00
6556;DHT22;3311;48.32423000;14.29074500;2023-02-22T10:33:54;15.30;58.00
6556;DHT22;3311;48.32423000;14.29074500;2023-02-22T10:36:24;15.30;58.10
6556;DHT22;3311;48.32423000;14.29074500;2023-02-22T10:38:57;15.30;58.20
6556;DHT22;3311;48.32423000;14.29074500;2023-02-22T10:41:28;15.30;58.20
6556;DHT22;3311;48.32423000;14.29074500;2023-02-22T10:43:57;15.30;58.00
6556;DHT22;3311;48.32423000;14.29074500;2023-02-22T10:46:27;15.30;58.00
6556;DHT22;3311;48.32423000;14.29074500;2023-02-22T10:48:59;13.80;56.80
6556;DHT22;3311;48.32423000;14.29074500;2023-02-22T10:51:29;15.30;58.10
6556;DHT22;3311;48.32423000;14.29074500;2023-02-22T10:54:20;15.30;58.20
6556;DHT22;3311;48.32423000;14.29074500;2023-02-22T10:56:51;15.30;58.20
6556;DHT22;3311;48.32423000;14.29074500;2023-02-22T10:59:29;15.30;58.10
6556;DHT22;3311;48.32423000;14.29074500;2023-02-22T11:01:57;15.30;58.20
6556;DHT22;3311;48.32423000;14.29074500;2023-02-22T11:04:25;15.30;58.20
6556;DHT22;3311;48.32423000;14.29074500;2023-02-22T11:07:09;15.30;58.20
6556;DHT22;3311;48.32423000;14.29074500;2023-02-22T11:09:49;15.30;58.40
6556;DHT22;3311;48.32423000;14.29074500;2023-02-22T11:12:19;15.30;58.40
6556;DHT22;3311;48.32423000;14.29074500;2023-02-22T11:14:47;15.30;58.40
6556;DHT22;3311;48.32423000;14.29074500;2023-02-22T11:17:25;15.30;58.40
6556;DHT22;3311;48.32423000;14.29074500;2023-02-22T11:19:55;15.30;58.40
6556;DHT22;3311;48.32423000;14.29074500;2023-02-22T11:22:25;15.20;58.30
6556;DHT22;3311;48.32423000;14.29074500;2023-02-22T11:24:57;15.20;58.40
6556;DHT22;3311;48.32423000;14.29074500;2023-02-22T11:27:30;15.20;58.50
6556;DHT22;3311;48.32423000;14.29074500;2023-02-22T11:30:10;15.20;58.50
6556;DHT22;3311;48.32423000;14.29074500;2023-02-22T11:32:43;15.20;58.70
6556;DHT22;3311;48.32423000;14.29074500;2023-02-22T11:35:31;15.20;58.60
6556;DHT22;3311;48.32423000;14.29074500;2023-02-22T11:38:13;15.20;58.50
6556;DHT22;3311;48.32423000;14.29074500;2023-02-22T11:40:44;15.20;58.50
6556;DHT22;3311;48.32423000;14.29074500;2023-02-22T11:43:15;15.30;58.60
6556;DHT22;3311;48.32423000;14.29074500;2023-02-22T11:45:58;15.30;58.60
6556;DHT22;3311;48.32423000;14.29074500;2023-02-22T11:48:29;15.30;58.70
6556;DHT22;3311;48.32423000;14.29074500;2023-02-22T11:51:13;15.30;58.80
6556;DHT22;3311;48.32423000;14.29074500;2023-02-22T11:54:11;15.30;59.40
6556;DHT22;3311;48.32423000;14.29074500;2023-02-22T11:56:50;15.30;58.90
6556;DHT22;3311;48.32423000;14.29074500;2023-02-22T11:59:25;15.30;58.70
6556;DHT22;3311;48.32423000;14.29074500;2023-02-22T12:01:57;15.30;58.80
6556;DHT22;3311;48.32423000;14.29074500;2023-02-22T12:04:53;15.30;58.80
6556;DHT22;3311;48.32423000;14.29074500;2023-02-22T12:07:33;15.30;58.80
6556;DHT22;3311;48.32423000;14.29074500;2023-02-22T12:10:15;15.30;58.80
6556;DHT22;3311;48.32423000;14.29074500;2023-02-22T12:12:57;15.30;59.00
6556;DHT22;3311;48.32423000;14.29074500;2023-02-22T12:15:29;15.30;58.90
6556;DHT22;3311;48.32423000;14.29074500;2023-02-22T12:18:03;15.30;59.00
6556;DHT22;3311;48.32423000;14.29074500;2023-02-22T12:20:38;15.30;59.00
6556;DHT22;3311;48.32423000;14.29074500;2023-02-22T12:23:14;15.30;59.00
6556;DHT22;3311;48.32423000;14.29074500;2023-02-22T12:25:55;15.30;58.90
6556;DHT22;3311;48.32423000;14.29074500;2023-02-22T12:28:31;15.30;59.00
6556;DHT22;3311;48.32423000;14.29074500;2023-02-22T12:31:13;15.30;59.00
6556;DHT22;3311;48.32423000;14.29074500;2023-02-22T12:33:50;15.30;59.00
6556;DHT22;3311;48.32423000;14.29074500;2023-02-22T12:36:24;15.30;59.10
6556;DHT22;3311;48.32423000;14.29074500;2023-02-22T12:39:02;15.30;59.10
6556;DHT22;3311;48.32423000;14.29074500;2023-02-22T12:41:34;15.40;59.10
6556;DHT22;3311;48.32423000;14.29074500;2023-02-22T12:44:07;15.40;59.30
6556;DHT22;3311;48.32423000;14.29074500;2023-02-22T12:46:39;15.40;59.30
6556;DHT22;3311;48.32423000;14.29074500;2023-02-22T12:49:14;15.40;59.20
6556;DHT22;3311;48.32423000;14.29074500;2023-02-22T12:51:47;15.40;59.10
6556;DHT22;3311;48.32423000;14.29074500;2023-02-22T12:54:21;15.40;59.20
6556;DHT22;3311;48.32423000;14.29074500;2023-02-22T12:56:53;15.40;59.20
6556;DHT22;3311;48.32423000;14.29074500;2023-02-22T12:59:28;15.40;59.10
6556;DHT22;3311;48.32423000;14.29074500;2023-02-22T13:02:00;15.40;59.40
6556;DHT22;3311;48.32423000;14.29074500;2023-02-22T13:04:30;15.40;59.20
6556;DHT22;3311;48.32423000;14.29074500;2023-02-22T13:07:14;15.40;59.20
6556;DHT22;3311;48.32423000;14.29074500;2023-02-22T13:12:42;15.40;59.10
6556;DHT22;3311;48.32423000;14.29074500;2023-02-22T13:15:19;15.40;59.20
6556;DHT22;3311;48.32423000;14.29074500;2023-02-22T13:17:57;15.40;59.20
6556;DHT22;3311;48.32423000;14.29074500;2023-02-22T13:20:29;15.40;59.50
6556;DHT22;3311;48.32423000;14.29074500;2023-02-22T13:23:03;15.40;59.20
6556;DHT22;3311;48.32423000;14.29074500;2023-02-22T13:25:39;15.40;59.40
6556;DHT22;3311;48.32423000;14.29074500;2023-02-22T13:28:19;15.40;59.30
6556;DHT22;3311;48.32423000;14.29074500;2023-02-22T13:31:03;15.40;59.30
6556;DHT22;3311;48.32423000;14.29074500;2023-02-22T13:33:46;15.40;59.70
6556;DHT22;3311;48.32423000;14.29074500;2023-02-22T13:36:31;15.40;59.90
6556;DHT22;3311;48.32423000;14.29074500;2023-02-22T13:39:12;15.40;59.40
6556;DHT22;3311;48.32423000;14.29074500;2023-02-22T13:41:52;15.40;59.50
6556;DHT22;3311;48.32423000;14.29074500;2023-02-22T13:44:39;15.40;59.80
6556;DHT22;3311;48.32423000;14.29074500;2023-02-22T13:50:25;15.50;60.00
6556;DHT22;3311;48.32423000;14.29074500;2023-02-22T13:52:57;15.50;59.80
6556;DHT22;3311;48.32423000;14.29074500;2023-02-22T13:55:28;15.50;60.60
6556;DHT22;3311;48.32423000;14.29074500;2023-02-22T13:58:02;15.50;59.90
6556;DHT22;3311;48.32423000;14.29074500;2023-02-22T14:00:43;15.50;60.00
6556;DHT22;3311;48.32423000;14.29074500;2023-02-22T14:03:29;15.50;60.00
6556;DHT22;3311;48.32423000;14.29074500;2023-02-22T14:06:02;15.50;59.90
6556;DHT22;3311;48.32423000;14.29074500;2023-02-22T14:08:40;15.50;60.00
6556;DHT22;3311;48.32423000;14.29074500;2023-02-22T14:14:22;15.50;60.00